Time;durP1;ratioP1;P1;durP2;ratioP2;P2;SDS_P1;SDS_P2;PMS_P1;PMS_P2;Temp;Humidity;BMP_temperature;BMP_pressure;BME280_temperature;BME280_humidity;BME280_pressure;Samples;Min_cycle;Max_cycle;Signal;HPM_P1;HPM_P2
2024/01/31 00:00:38;;;;;;;11.38;5.85;;;;;;;;;;6246545;22;20018;-78
2024/01/31 00:03:05;;;;;;;10.05;5.18;;;;;;;;;;6245820;22;20012;-78
2024/01/31 00:05:31;;;;;;;9.50;5.03;;;;;;;;;;6246223;22;20455;-78
2024/01/31 00:07:59;;;;;;;10.25;4.93;;;;;;;;;;6246303;22;20039;-78
2024/01/31 00:10:25;;;;;;;9.70;5.15;;;;;;;;;;6245602;22;20020;-78
2024/01/31 00:12:52;;;;;;;9.57;4.47;;;;;;;;;;6246239;22;20008;-78
2024/01/31 00:15:19;;;;;;;8.30;4.72;;;;;;;;;;6245663;22;20586;-79
2024/01/31 00:17:46;;;;;;;7.38;4.32;;;;;;;;;;6246093;22;20115;-78
2024/01/31 00:20:13;;;;;;;9.30;4.47;;;;;;;;;;6245625;22;20008;-78
2024/01/31 00:22:40;;;;;;;8.52;4.57;;;;;;;;;;6246079;22;20016;-78
2024/01/31 00:25:07;;;;;;;8.05;4.07;;;;;;;;;;6245484;22;20024;-79
2024/01/31 00:27:34;;;;;;;8.93;4.25;;;;;;;;;;6246030;22;20012;-79
2024/01/31 00:30:00;;;;;;;5.18;3.47;;;;;;;;;;6246099;22;20016;-78
2024/01/31 00:32:27;;;;;;;13.60;3.47;;;;;;;;;;6245371;22;20024;-78
2024/01/31 00:34:54;;;;;;;9.52;3.63;;;;;;;;;;6246208;22;20012;-77
2024/01/31 00:37:21;;;;;;;7.28;3.10;;;;;;;;;;6245456;22;20318;-79
2024/01/31 00:39:48;;;;;;;5.60;3.38;;;;;;;;;;6245329;22;20463;-79
2024/01/31 00:42:15;;;;;;;6.38;3.10;;;;;;;;;;6245348;22;20424;-79
2024/01/31 00:44:42;;;;;;;6.07;4.00;;;;;;;;;;6244474;23;20083;-78
2024/01/31 00:47:09;;;;;;;6.80;3.58;;;;;;;;;;6245066;22;20642;-78
2024/01/31 00:49:37;;;;;;;8.65;3.63;;;;;;;;;;6245732;22;20324;-79
2024/01/31 00:52:04;;;;;;;5.53;3.10;;;;;;;;;;6245790;22;20019;-78
2024/01/31 00:54:31;;;;;;;7.47;3.55;;;;;;;;;;6245396;22;20020;-79
2024/01/31 00:56:58;;;;;;;8.23;3.28;;;;;;;;;;6245899;22;20020;-79
2024/01/31 00:59:25;;;;;;;7.97;3.33;;;;;;;;;;6245348;22;20020;-78
2024/01/31 01:01:51;;;;;;;7.07;3.60;;;;;;;;;;6245549;22;20009;-78
2024/01/31 01:04:18;;;;;;;8.25;3.72;;;;;;;;;;6245546;22;20014;-79
2024/01/31 01:06:45;;;;;;;16.73;3.60;;;;;;;;;;6246044;22;20087;-78
2024/01/31 01:09:12;;;;;;;8.55;3.80;;;;;;;;;;6245287;22;20019;-79
2024/01/31 01:11:38;;;;;;;8.15;3.40;;;;;;;;;;6245618;22;20020;-78
2024/01/31 01:14:06;;;;;;;11.95;4.22;;;;;;;;;;6245184;22;20012;-78
2024/01/31 01:16:33;;;;;;;9.20;3.70;;;;;;;;;;6245655;22;20035;-79
2024/01/31 01:19:00;;;;;;;8.77;4.03;;;;;;;;;;6245661;22;20047;-79
2024/01/31 01:21:27;;;;;;;6.45;3.78;;;;;;;;;;6244865;22;20048;-79
2024/01/31 01:23:54;;;;;;;5.70;3.55;;;;;;;;;;6245684;22;20354;-78
2024/01/31 01:26:21;;;;;;;8.52;3.70;;;;;;;;;;6245048;22;20015;-78
2024/01/31 01:28:47;;;;;;;7.68;3.92;;;;;;;;;;6244200;23;20350;-78
2024/01/31 01:31:14;;;;;;;7.85;3.53;;;;;;;;;;6244986;22;20020;-79
2024/01/31 01:33:41;;;;;;;11.57;3.95;;;;;;;;;;6245586;22;20016;-78
2024/01/31 01:36:08;;;;;;;6.25;3.50;;;;;;;;;;6245126;22;20028;-79
2024/01/31 01:38:36;;;;;;;7.32;3.92;;;;;;;;;;6245463;22;20031;-79
2024/01/31 01:41:06;;;;;;;7.45;4.18;;;;;;;;;;6245284;22;20009;-79
2024/01/31 01:43:33;;;;;;;11.50;4.00;;;;;;;;;;6245172;22;20019;-79
2024/01/31 01:46:12;;;;;;;8.20;4.32;;;;;;;;;;6245368;22;20094;-79
2024/01/31 01:48:40;;;;;;;12.40;5.28;;;;;;;;;;6245512;22;20020;-78
2024/01/31 01:51:08;;;;;;;;;;;;;;;;;;6246337;22;20015;-79
2024/01/31 01:53:38;;;;;;;10.07;5.47;;;;;;;;;;6247438;22;19915;-78
2024/01/31 01:56:08;;;;;;;11.07;4.03;;;;;;;;;;6247060;22;20020;-78
2024/01/31 01:58:36;;;;;;;7.82;4.25;;;;;;;;;;6247435;22;20022;-78
2024/01/31 02:01:04;;;;;;;6.65;3.92;;;;;;;;;;6247485;22;20020;-79
2024/01/31 02:03:31;;;;;;;10.25;4.63;;;;;;;;;;6247232;22;20016;-79
2024/01/31 02:05:59;;;;;;;12.27;4.88;;;;;;;;;;6247740;22;20016;-78
2024/01/31 02:08:27;;;;;;;6.63;3.95;;;;;;;;;;6246677;22;20313;-77
2024/01/31 02:10:54;;;;;;;8.48;3.70;;;;;;;;;;6247426;22;20012;-79
2024/01/31 02:13:21;;;;;;;8.52;3.80;;;;;;;;;;6246893;22;20019;-78
2024/01/31 02:15:56;;;;;;;13.90;4.63;;;;;;;;;;6247329;22;20016;-78
2024/01/31 02:18:25;;;;;;;7.88;4.30;;;;;;;;;;6246750;22;20020;-79
2024/01/31 02:20:51;;;;;;;;;;;;;;;;;;6247932;22;20016;-79
2024/01/31 02:23:18;;;;;;;9.40;4.45;;;;;;;;;;6246786;22;19915;-79
2024/01/31 02:25:45;;;;;;;8.57;4.15;;;;;;;;;;6245414;23;20008;-79
2024/01/31 02:28:12;;;;;;;8.25;4.07;;;;;;;;;;6246874;22;20016;-78
2024/01/31 02:30:38;;;;;;;8.23;4.32;;;;;;;;;;6247404;22;20016;-78
2024/01/31 02:33:05;;;;;;;9.20;4.18;;;;;;;;;;6246838;22;20083;-79
2024/01/31 02:35:34;;;;;;;5.90;3.80;;;;;;;;;;6247112;22;20086;-79
2024/01/31 02:38:01;;;;;;;10.35;4.35;;;;;;;;;;6247335;22;20436;-79
2024/01/31 02:40:30;;;;;;;6.60;3.60;;;;;;;;;;6246615;22;20440;-78
2024/01/31 02:42:58;;;;;;;10.95;4.65;;;;;;;;;;6246907;22;20062;-78
2024/01/31 02:45:27;;;;;;;8.80;4.43;;;;;;;;;;6246467;22;20024;-79
2024/01/31 02:47:54;;;;;;;9.45;4.13;;;;;;;;;;6245289;23;20031;-78
2024/01/31 02:50:21;;;;;;;11.57;4.45;;;;;;;;;;6246533;22;20015;-79
2024/01/31 02:52:48;;;;;;;10.18;4.80;;;;;;;;;;6247133;22;20012;-79
2024/01/31 02:55:15;;;;;;;10.52;4.70;;;;;;;;;;6246443;22;20008;-78
2024/01/31 02:57:42;;;;;;;8.30;4.60;;;;;;;;;;6246956;22;20016;-79
2024/01/31 03:00:11;;;;;;;9.63;4.85;;;;;;;;;;6246294;22;20070;-78
2024/01/31 03:02:43;;;;;;;9.65;4.50;;;;;;;;;;6246540;22;20070;-79
2024/01/31 03:05:11;;;;;;;9.18;4.45;;;;;;;;;;6246349;22;20016;-79
2024/01/31 03:07:39;;;;;;;;;;;;;;;;;;6247493;22;20429;-78
2024/01/31 03:10:07;;;;;;;8.50;4.57;;;;;;;;;;6246589;22;19915;-79
2024/01/31 03:12:34;;;;;;;10.30;4.53;;;;;;;;;;6247041;22;20016;-79
2024/01/31 03:15:01;;;;;;;10.10;4.80;;;;;;;;;;6246919;22;20016;-79
2024/01/31 03:17:34;;;;;;;8.15;4.40;;;;;;;;;;6246257;22;20044;-78
2024/01/31 03:20:05;;;;;;;9.85;4.28;;;;;;;;;;6246898;22;20028;-78
2024/01/31 03:22:34;;;;;;;10.90;4.95;;;;;;;;;;6246325;22;20377;-79
2024/01/31 03:25:02;;;;;;;;;;;;;;;;;;6247166;22;20326;-78
2024/01/31 03:27:28;;;;;;;9.93;4.90;;;;;;;;;;6246170;22;20284;-79
2024/01/31 03:30:01;;;;;;;10.93;4.60;;;;;;;;;;6246802;22;20016;-78
2024/01/31 03:32:33;;;;;;;7.95;4.60;;;;;;;;;;6246432;22;20433;-78
2024/01/31 03:35:00;;;;;;;8.68;4.65;;;;;;;;;;6246941;22;20028;-79
2024/01/31 03:37:27;;;;;;;14.07;5.15;;;;;;;;;;6246097;22;20016;-78
2024/01/31 03:39:54;;;;;;;9.80;5.00;;;;;;;;;;6246540;22;20096;-78
2024/01/31 03:42:21;;;;;;;11.57;4.60;;;;;;;;;;6246100;22;20016;-78
2024/01/31 03:44:47;;;;;;;9.70;4.18;;;;;;;;;;6246450;22;20012;-79
2024/01/31 03:47:14;;;;;;;11.00;4.95;;;;;;;;;;6246164;22;20322;-78
2024/01/31 03:49:41;;;;;;;8.95;4.40;;;;;;;;;;6246758;22;20013;-79
2024/01/31 03:52:08;;;;;;;8.48;4.20;;;;;;;;;;6245939;22;20047;-79
2024/01/31 03:54:34;;;;;;;10.88;4.05;;;;;;;;;;6246608;22;20024;-78
2024/01/31 03:57:01;;;;;;;8.95;3.83;;;;;;;;;;6246233;22;21245;-79
2024/01/31 03:59:28;;;;;;;9.48;4.57;;;;;;;;;;6245783;22;20314;-78
2024/01/31 04:01:54;;;;;;;6.97;4.03;;;;;;;;;;6246269;22;20321;-79
2024/01/31 04:04:21;;;;;;;9.15;3.95;;;;;;;;;;6245790;22;20416;-79
2024/01/31 04:06:48;;;;;;;9.05;4.22;;;;;;;;;;6246608;22;20016;-79
2024/01/31 04:09:15;;;;;;;6.38;4.05;;;;;;;;;;6245752;22;20023;-77
2024/01/31 04:11:42;;;;;;;6.88;3.33;;;;;;;;;;6246005;22;20488;-78
2024/01/31 04:14:08;;;;;;;8.50;3.80;;;;;;;;;;6245671;22;20079;-77
2024/01/31 04:16:35;;;;;;;7.75;4.20;;;;;;;;;;6246041;22;20094;-78
2024/01/31 04:19:02;;;;;;;8.85;3.75;;;;;;;;;;6246507;22;20500;-79
2024/01/31 04:21:29;;;;;;;4.97;3.25;;;;;;;;;;6245693;22;20055;-79
2024/01/31 04:23:56;;;;;;;7.97;3.67;;;;;;;;;;6246034;22;20008;-77
2024/01/31 04:26:22;;;;;;;9.88;4.75;;;;;;;;;;6245752;22;20026;-77
2024/01/31 04:28:49;;;;;;;10.13;4.25;;;;;;;;;;6246245;22;20016;-79
2024/01/31 04:31:16;;;;;;;7.05;3.80;;;;;;;;;;6245470;22;20504;-79
2024/01/31 04:33:43;;;;;;;7.97;3.83;;;;;;;;;;6246160;22;20087;-79
2024/01/31 04:36:10;;;;;;;11.23;3.80;;;;;;;;;;6245707;22;20016;-79
2024/01/31 04:38:37;;;;;;;12.73;3.78;;;;;;;;;;6245855;22;20448;-79
2024/01/31 04:41:04;;;;;;;9.40;4.10;;;;;;;;;;6245281;22;20401;-78
2024/01/31 04:43:30;;;;;;;7.25;4.05;;;;;;;;;;6246017;22;20019;-79
2024/01/31 04:45:57;;;;;;;5.63;3.58;;;;;;;;;;6245765;22;20454;-79
2024/01/31 04:48:24;;;;;;;7.43;3.97;;;;;;;;;;6245615;22;20365;-79
2024/01/31 04:50:51;;;;;;;8.45;3.92;;;;;;;;;;6245827;22;20024;-79
2024/01/31 04:53:18;;;;;;;9.85;3.85;;;;;;;;;;6245294;22;20042;-79
2024/01/31 04:55:45;;;;;;;8.15;4.00;;;;;;;;;;6246037;22;20325;-79
2024/01/31 04:58:13;;;;;;;11.00;4.43;;;;;;;;;;6245580;22;20237;-77
2024/01/31 05:00:40;;;;;;;9.82;3.97;;;;;;;;;;6245992;22;20019;-78
2024/01/31 05:03:07;;;;;;;10.30;4.20;;;;;;;;;;6245144;22;20016;-78
2024/01/31 05:05:34;;;;;;;9.75;3.95;;;;;;;;;;6245939;22;20019;-78
2024/01/31 05:08:01;;;;;;;9.00;3.80;;;;;;;;;;6245929;22;20012;-78
2024/01/31 05:10:28;;;;;;;9.93;3.85;;;;;;;;;;6245321;22;20016;-77
2024/01/31 05:12:55;;;;;;;10.10;3.70;;;;;;;;;;6245994;22;20022;-78
2024/01/31 05:15:21;;;;;;;7.90;3.85;;;;;;;;;;6245237;22;20012;-78
2024/01/31 05:17:48;;;;;;;12.35;4.38;;;;;;;;;;6244241;23;20066;-78
2024/01/31 05:20:15;;;;;;;9.45;4.10;;;;;;;;;;6245317;22;20012;-78
2024/01/31 05:22:42;;;;;;;7.47;3.70;;;;;;;;;;6245512;22;20066;-78
2024/01/31 05:25:09;;;;;;;10.05;4.15;;;;;;;;;;6244773;22;20324;-78
2024/01/31 05:27:36;;;;;;;9.60;3.67;;;;;;;;;;6245433;22;20198;-77
2024/01/31 05:30:04;;;;;;;9.52;4.95;;;;;;;;;;6245708;22;20015;-78
2024/01/31 05:32:31;;;;;;;8.40;4.32;;;;;;;;;;6245288;22;20039;-78
2024/01/31 05:34:58;;;;;;;8.18;3.75;;;;;;;;;;6245821;22;20008;-78
2024/01/31 05:37:25;;;;;;;6.32;3.63;;;;;;;;;;6244991;22;20020;-78
2024/01/31 05:39:52;;;;;;;8.30;4.32;;;;;;;;;;6245435;22;20023;-78
2024/01/31 05:42:18;;;;;;;8.90;3.70;;;;;;;;;;6245005;22;20013;-77
2024/01/31 05:44:45;;;;;;;9.40;3.55;;;;;;;;;;6245433;22;20016;-79
2024/01/31 05:47:12;;;;;;;8.20;3.72;;;;;;;;;;6244389;22;20012;-78
2024/01/31 05:49:38;;;;;;;10.07;3.83;;;;;;;;;;6245286;22;20557;-78
2024/01/31 05:52:05;;;;;;;9.32;3.50;;;;;;;;;;6244053;22;20321;-78
2024/01/31 05:54:32;;;;;;;10.45;3.60;;;;;;;;;;6245578;22;20384;-78
2024/01/31 05:56:59;;;;;;;12.52;4.20;;;;;;;;;;6245578;22;20020;-78
2024/01/31 05:59:26;;;;;;;12.10;4.28;;;;;;;;;;6245253;22;20016;-77
2024/01/31 06:01:52;;;;;;;7.15;4.05;;;;;;;;;;6245457;22;20087;-78
2024/01/31 06:04:19;;;;;;;8.98;3.53;;;;;;;;;;6243430;22;20303;-78
2024/01/31 06:06:46;;;;;;;11.52;4.07;;;;;;;;;;6245740;22;20016;-78
2024/01/31 06:09:13;;;;;;;8.00;3.58;;;;;;;;;;6244769;22;20004;-78
2024/01/31 06:11:40;;;;;;;10.80;3.97;;;;;;;;;;6245667;22;20012;-78
2024/01/31 06:14:07;;;;;;;10.93;4.15;;;;;;;;;;6245173;22;20013;-78
2024/01/31 06:16:33;;;;;;;8.73;3.58;;;;;;;;;;6245272;22;20062;-78
2024/01/31 06:19:01;;;;;;;10.10;4.07;;;;;;;;;;6245455;22;20020;-79
2024/01/31 06:21:28;;;;;;;9.32;4.00;;;;;;;;;;6245035;22;20020;-77
2024/01/31 06:23:55;;;;;;;5.93;3.70;;;;;;;;;;6245459;22;20492;-78
2024/01/31 06:26:22;;;;;;;9.73;4.32;;;;;;;;;;6244664;22;20008;-77
2024/01/31 06:28:49;;;;;;;9.60;4.15;;;;;;;;;;6245418;22;20012;-78
2024/01/31 06:31:24;;;;;;;11.43;4.10;;;;;;;;;;6244945;22;20032;-78
2024/01/31 06:33:51;;;;;;;10.27;4.57;;;;;;;;;;6246490;22;20017;-79
2024/01/31 06:36:21;;;;;;;9.65;4.28;;;;;;;;;;6245504;22;20046;-78
2024/01/31 06:38:48;;;;;;;11.93;4.97;;;;;;;;;;6246603;22;20012;-78
2024/01/31 06:41:16;;;;;;;7.80;4.15;;;;;;;;;;6246518;22;20019;-78
2024/01/31 06:43:43;;;;;;;10.63;4.70;;;;;;;;;;6246951;22;20091;-78
2024/01/31 06:46:10;;;;;;;10.93;4.53;;;;;;;;;;6232243;22;20675;-84
2024/01/31 06:48:40;;;;;;;10.57;4.88;;;;;;;;;;6245582;23;20151;-78
2024/01/31 06:51:07;;;;;;;12.32;5.55;;;;;;;;;;6246955;22;20016;-78
2024/01/31 06:53:34;;;;;;;11.02;5.20;;;;;;;;;;6246615;22;20012;-78
2024/01/31 06:56:01;;;;;;;8.43;5.43;;;;;;;;;;6245914;22;20031;-81
2024/01/31 06:58:28;;;;;;;11.93;5.40;;;;;;;;;;6244381;22;20051;-76
2024/01/31 07:00:59;;;;;;;13.60;5.60;;;;;;;;;;6246406;22;20082;-77
2024/01/31 07:03:27;;;;;;;7.93;5.05;;;;;;;;;;6245205;22;20468;-78
2024/01/31 07:05:53;;;;;;;14.32;5.65;;;;;;;;;;6245937;22;20024;-78
2024/01/31 07:08:20;;;;;;;12.50;5.70;;;;;;;;;;6244322;22;20095;-78
2024/01/31 07:10:47;;;;;;;10.40;5.53;;;;;;;;;;6244254;22;20015;-77
2024/01/31 07:13:14;;;;;;;8.20;5.10;;;;;;;;;;6243669;22;20016;-78
2024/01/31 07:15:40;;;;;;;17.92;5.68;;;;;;;;;;6244153;22;20043;-78
2024/01/31 07:18:07;;;;;;;15.98;5.95;;;;;;;;;;6243655;22;20031;-78
2024/01/31 07:20:34;;;;;;;18.23;5.63;;;;;;;;;;6242827;22;20075;-78
2024/01/31 07:23:01;;;;;;;9.32;5.45;;;;;;;;;;6243226;22;20027;-78
2024/01/31 07:25:28;;;;;;;14.00;5.55;;;;;;;;;;6245871;22;20023;-77
2024/01/31 07:27:54;;;;;;;10.60;5.40;;;;;;;;;;6246827;22;20008;-78
2024/01/31 07:30:21;;;;;;;11.75;5.20;;;;;;;;;;6245168;22;20004;-78
2024/01/31 07:32:48;;;;;;;14.77;5.60;;;;;;;;;;6246716;22;20016;-78
2024/01/31 07:35:14;;;;;;;10.18;5.82;;;;;;;;;;6246083;22;20111;-78
2024/01/31 07:37:41;;;;;;;11.65;5.70;;;;;;;;;;6245297;22;20020;-78
2024/01/31 07:40:11;;;;;;;10.80;6.00;;;;;;;;;;6242268;22;20016;-80
2024/01/31 07:42:38;;;;;;;17.00;6.05;;;;;;;;;;6244135;22;20012;-78
2024/01/31 07:45:05;;;;;;;18.52;6.70;;;;;;;;;;6243221;22;20020;-78
2024/01/31 07:47:32;;;;;;;13.50;5.47;;;;;;;;;;6244328;22;20377;-78
2024/01/31 07:49:59;;;;;;;10.88;5.95;;;;;;;;;;6244177;22;20563;-78
2024/01/31 07:52:26;;;;;;;10.13;5.28;;;;;;;;;;6244294;22;20115;-80
2024/01/31 07:54:53;;;;;;;13.13;5.75;;;;;;;;;;6270439;22;20012;-77
2024/01/31 07:57:19;;;;;;;11.73;5.90;;;;;;;;;;6245746;22;20012;-80
2024/01/31 07:59:46;;;;;;;14.55;6.47;;;;;;;;;;6246430;22;20019;-79
2024/01/31 08:02:13;;;;;;;13.20;6.20;;;;;;;;;;6245912;22;20020;-79
2024/01/31 08:04:39;;;;;;;16.17;5.97;;;;;;;;;;6244794;23;20020;-80
2024/01/31 08:07:06;;;;;;;12.63;5.85;;;;;;;;;;6245814;22;20086;-79
2024/01/31 08:09:33;;;;;;;14.52;6.30;;;;;;;;;;6246370;22;20016;-79
2024/01/31 08:12:00;;;;;;;10.40;5.68;;;;;;;;;;6246203;22;20535;-80
2024/01/31 08:14:27;;;;;;;15.25;5.72;;;;;;;;;;6245690;22;20027;-79
2024/01/31 08:16:54;;;;;;;26.10;7.40;;;;;;;;;;6246358;22;20014;-80
2024/01/31 08:19:20;;;;;;;13.07;6.25;;;;;;;;;;6245620;22;20437;-80
2024/01/31 08:21:47;;;;;;;11.43;6.20;;;;;;;;;;6246131;22;20013;-79
2024/01/31 08:24:15;;;;;;;15.43;6.53;;;;;;;;;;6245674;22;20383;-80
2024/01/31 08:26:41;;;;;;;15.93;5.88;;;;;;;;;;6246064;22;20437;-80
2024/01/31 08:29:08;;;;;;;12.63;5.97;;;;;;;;;;6245542;22;20012;-78
2024/01/31 08:31:48;;;;;;;14.98;6.38;;;;;;;;;;6246027;22;20058;-78
2024/01/31 08:34:15;;;;;;;10.23;5.63;;;;;;;;;;6245591;22;20016;-78
2024/01/31 08:36:43;;;;;;;12.65;6.10;;;;;;;;;;6246146;22;20012;-78
2024/01/31 08:39:09;;;;;;;13.45;5.90;;;;;;;;;;6245377;22;20039;-78
2024/01/31 08:41:36;;;;;;;12.57;6.10;;;;;;;;;;6245607;22;20012;-77
2024/01/31 08:44:03;;;;;;;15.00;6.80;;;;;;;;;;6246001;22;20074;-77
2024/01/31 08:46:30;;;;;;;10.23;5.43;;;;;;;;;;6245406;22;20349;-78
2024/01/31 08:49:02;;;;;;;12.27;6.18;;;;;;;;;;6245900;22;20016;-77
2024/01/31 08:51:30;;;;;;;17.10;6.50;;;;;;;;;;6245685;22;20087;-78
2024/01/31 08:53:57;;;;;;;13.98;6.40;;;;;;;;;;6245964;22;20074;-77
2024/01/31 08:56:23;;;;;;;15.40;5.80;;;;;;;;;;6245451;22;20325;-78
2024/01/31 08:58:50;;;;;;;11.05;6.53;;;;;;;;;;6245981;22;20062;-78
2024/01/31 09:01:17;;;;;;;12.85;7.15;;;;;;;;;;6244892;22;20016;-78
2024/01/31 09:03:44;;;;;;;15.68;6.28;;;;;;;;;;6245687;22;20039;-77
2024/01/31 09:06:11;;;;;;;18.20;7.28;;;;;;;;;;6245342;22;20030;-77
2024/01/31 09:08:39;;;;;;;12.55;6.60;;;;;;;;;;6269691;22;20539;-78
2024/01/31 09:11:05;;;;;;;14.57;6.40;;;;;;;;;;6268898;22;20020;-79
2024/01/31 09:13:32;;;;;;;16.08;6.57;;;;;;;;;;6245895;22;20027;-79
2024/01/31 09:16:00;;;;;;;15.68;6.05;;;;;;;;;;6245921;22;20020;-78
2024/01/31 09:18:26;;;;;;;10.80;5.65;;;;;;;;;;6245359;22;20040;-78
2024/01/31 09:20:53;;;;;;;14.10;6.05;;;;;;;;;;6245714;22;20008;-79
2024/01/31 09:23:21;;;;;;;18.50;6.03;;;;;;;;;;6243639;22;20012;-78
2024/01/31 09:25:49;;;;;;;13.77;5.97;;;;;;;;;;6245803;22;20425;-78
2024/01/31 09:28:16;;;;;;;14.50;5.78;;;;;;;;;;6245139;22;20043;-78
2024/01/31 09:30:44;;;;;;;11.63;6.30;;;;;;;;;;6245751;22;20032;-77
2024/01/31 09:33:10;;;;;;;16.38;6.53;;;;;;;;;;6245280;22;20034;-79
2024/01/31 09:35:39;;;;;;;19.33;6.28;;;;;;;;;;6245706;22;20067;-78
2024/01/31 09:38:06;;;;;;;18.48;6.05;;;;;;;;;;6245278;22;20066;-79
2024/01/31 09:40:32;;;;;;;14.15;6.40;;;;;;;;;;6245376;22;20020;-77
2024/01/31 09:42:59;;;;;;;16.42;6.30;;;;;;;;;;6245612;22;20016;-78
2024/01/31 09:45:28;;;;;;;18.38;6.43;;;;;;;;;;6244927;22;20020;-78
2024/01/31 09:47:57;;;;;;;13.95;6.65;;;;;;;;;;6245476;22;20016;-78
2024/01/31 09:50:24;;;;;;;18.17;6.28;;;;;;;;;;6245094;22;20035;-78
2024/01/31 09:52:54;;;;;;;11.88;6.30;;;;;;;;;;6269262;22;20099;-78
2024/01/31 09:55:23;;;;;;;13.57;6.72;;;;;;;;;;6245111;22;20012;-78
2024/01/31 09:57:53;;;;;;;13.40;5.72;;;;;;;;;;6245339;22;20044;-78
2024/01/31 10:00:19;;;;;;;16.65;6.20;;;;;;;;;;6244918;22;20015;-78
2024/01/31 10:02:49;;;;;;;15.95;6.38;;;;;;;;;;6245824;22;20008;-78
2024/01/31 10:05:17;;;;;;;18.27;8.15;;;;;;;;;;6244924;22;20018;-78
2024/01/31 10:07:43;;;;;;;17.13;7.03;;;;;;;;;;6245581;22;20008;-78
2024/01/31 10:10:10;;;;;;;18.67;7.80;;;;;;;;;;6244906;22;20008;-78
2024/01/31 10:12:38;;;;;;;17.20;7.95;;;;;;;;;;6245391;23;20275;-78
2024/01/31 10:15:09;;;;;;;16.50;6.20;;;;;;;;;;6245536;22;20016;-77
2024/01/31 10:17:36;;;;;;;18.45;6.95;;;;;;;;;;6247350;22;20023;-78
2024/01/31 10:20:07;;;;;;;11.75;6.75;;;;;;;;;;6247496;22;20051;-78
2024/01/31 10:22:34;;;;;;;18.17;7.70;;;;;;;;;;6247081;22;20012;-78
2024/01/31 10:25:04;;;;;;;17.17;7.88;;;;;;;;;;6247157;22;20023;-78
2024/01/31 10:27:34;;;;;;;20.20;10.52;;;;;;;;;;6247205;22;20020;-79
2024/01/31 10:30:07;;;;;;;22.58;12.45;;;;;;;;;;6247455;22;20031;-78
2024/01/31 10:32:35;;;;;;;15.80;9.50;;;;;;;;;;6246877;22;20027;-78
2024/01/31 10:35:03;;;;;;;18.92;8.30;;;;;;;;;;6247562;22;20046;-78
2024/01/31 10:37:50;;;;;;;16.98;9.25;;;;;;;;;;6246580;22;20039;-79
2024/01/31 10:40:27;;;;;;;14.40;6.32;;;;;;;;;;6246663;22;20036;-78
2024/01/31 10:42:55;;;;;;;12.88;6.05;;;;;;;;;;6247320;22;20013;-78
2024/01/31 10:45:22;;;;;;;16.75;7.53;;;;;;;;;;6246432;22;20115;-78
2024/01/31 10:47:49;;;;;;;17.98;8.88;;;;;;;;;;6247169;22;20016;-78
2024/01/31 10:50:16;;;;;;;17.77;7.93;;;;;;;;;;6244844;22;20012;-78
2024/01/31 10:52:44;;;;;;;17.83;9.52;;;;;;;;;;6247171;22;20020;-78
2024/01/31 10:55:11;;;;;;;16.30;9.18;;;;;;;;;;6246571;22;20024;-76
2024/01/31 10:57:39;;;;;;;16.30;9.45;;;;;;;;;;6245584;23;20063;-77
2024/01/31 11:00:09;;;;;;;17.02;9.15;;;;;;;;;;6246530;22;20019;-78
2024/01/31 11:02:36;;;;;;;18.83;10.30;;;;;;;;;;6247134;22;20008;-78
2024/01/31 11:05:04;;;;;;;17.08;9.32;;;;;;;;;;6246834;22;20087;-79
2024/01/31 11:07:31;;;;;;;13.38;7.40;;;;;;;;;;6246855;22;20360;-79
2024/01/31 11:09:58;;;;;;;15.25;8.00;;;;;;;;;;6247078;22;20042;-78
2024/01/31 11:12:28;;;;;;;15.02;7.63;;;;;;;;;;6245939;22;20091;-79
2024/01/31 11:14:57;;;;;;;11.68;6.13;;;;;;;;;;6246785;22;20368;-78
2024/01/31 11:17:26;;;;;;;9.98;5.68;;;;;;;;;;6246273;22;20070;-78
2024/01/31 11:19:58;;;;;;;11.73;6.10;;;;;;;;;;6246949;22;20043;-78
2024/01/31 11:22:25;;;;;;;13.15;6.85;;;;;;;;;;6246486;22;20020;-79
2024/01/31 11:24:53;;;;;;;13.93;6.25;;;;;;;;;;6246317;22;20027;-78
2024/01/31 11:27:20;;;;;;;12.43;6.65;;;;;;;;;;6244681;22;20019;-78
2024/01/31 11:29:51;;;;;;;12.95;6.10;;;;;;;;;;6270448;22;20015;-78
2024/01/31 11:32:20;;;;;;;13.95;5.90;;;;;;;;;;6245954;22;20085;-78
2024/01/31 11:34:59;;;;;;;13.55;5.82;;;;;;;;;;6246738;22;20028;-78
2024/01/31 11:37:27;;;;;;;15.65;6.28;;;;;;;;;;6244473;22;20078;-78
2024/01/31 11:39:54;;;;;;;9.45;4.72;;;;;;;;;;6246620;22;20087;-79
2024/01/31 11:42:21;;;;;;;13.10;5.07;;;;;;;;;;6246018;22;20009;-79
2024/01/31 11:44:48;;;;;;;10.27;4.70;;;;;;;;;;6246038;22;20023;-77
2024/01/31 11:47:15;;;;;;;11.68;5.00;;;;;;;;;;6245824;22;20008;-78
2024/01/31 11:49:42;;;;;;;10.93;4.70;;;;;;;;;;6246429;22;20020;-79
2024/01/31 11:52:09;;;;;;;9.70;4.22;;;;;;;;;;6246046;22;20087;-79
2024/01/31 11:54:35;;;;;;;10.82;4.30;;;;;;;;;;6245631;22;20058;-79
2024/01/31 11:57:02;;;;;;;9.10;3.92;;;;;;;;;;6244973;22;20020;-78
2024/01/31 11:59:29;;;;;;;9.98;4.10;;;;;;;;;;6244310;22;20376;-78
2024/01/31 12:01:57;;;;;;;6.90;3.80;;;;;;;;;;6244772;22;20449;-78
2024/01/31 12:04:24;;;;;;;8.25;4.03;;;;;;;;;;6244320;22;20321;-78
2024/01/31 12:07:01;;;;;;;15.57;5.05;;;;;;;;;;6244727;22;20020;-78
2024/01/31 12:09:28;;;;;;;12.60;4.63;;;;;;;;;;6244399;22;20445;-77
2024/01/31 12:11:55;;;;;;;14.32;4.63;;;;;;;;;;6244508;22;20012;-79
2024/01/31 12:14:22;;;;;;;10.77;3.75;;;;;;;;;;6244093;22;20024;-80
2024/01/31 12:16:49;;;;;;;11.00;4.25;;;;;;;;;;6242929;23;20015;-79
2024/01/31 12:19:19;;;;;;;11.07;4.13;;;;;;;;;;6244167;22;20019;-79
2024/01/31 12:21:46;;;;;;;12.55;3.80;;;;;;;;;;6244613;22;20015;-79
2024/01/31 12:24:13;;;;;;;9.63;3.40;;;;;;;;;;6244223;22;20015;-79
2024/01/31 12:26:40;;;;;;;8.10;3.15;;;;;;;;;;6245138;22;20016;-78
2024/01/31 12:29:07;;;;;;;6.93;2.90;;;;;;;;;;6243255;22;20012;-78
2024/01/31 12:31:34;;;;;;;9.48;3.17;;;;;;;;;;6246136;22;20020;-78
2024/01/31 12:34:02;;;;;;;5.93;2.58;;;;;;;;;;6246250;22;20012;-78
2024/01/31 12:36:28;;;;;;;8.32;2.72;;;;;;;;;;6245708;22;20024;-77
2024/01/31 12:38:55;;;;;;;6.10;2.55;;;;;;;;;;6246273;22;20019;-78
2024/01/31 12:41:22;;;;;;;9.25;2.42;;;;;;;;;;6241925;22;20036;-79
2024/01/31 12:43:50;;;;;;;8.02;2.55;;;;;;;;;;6245574;22;20016;-79
2024/01/31 12:46:17;;;;;;;5.38;2.05;;;;;;;;;;6243399;22;20084;-78
2024/01/31 12:48:44;;;;;;;9.43;2.65;;;;;;;;;;6244392;23;20016;-78
2024/01/31 12:51:12;;;;;;;5.68;2.20;;;;;;;;;;6245162;22;20016;-79
2024/01/31 12:53:39;;;;;;;6.22;2.10;;;;;;;;;;6245029;22;20806;-79
2024/01/31 12:56:06;;;;;;;6.20;1.75;;;;;;;;;;6244693;22;20046;-79
2024/01/31 12:58:32;;;;;;;6.05;1.80;;;;;;;;;;6245603;22;20023;-78
2024/01/31 13:01:00;;;;;;;5.93;1.98;;;;;;;;;;6245227;22;20016;-78
2024/01/31 13:03:26;;;;;;;6.30;2.65;;;;;;;;;;6245084;22;20024;-78
2024/01/31 13:05:54;;;;;;;7.88;2.00;;;;;;;;;;6245113;22;20099;-78
2024/01/31 13:08:21;;;;;;;9.82;2.13;;;;;;;;;;6244699;22;20083;-78
2024/01/31 13:10:48;;;;;;;5.53;1.83;;;;;;;;;;6245650;22;20023;-78
2024/01/31 13:13:15;;;;;;;5.95;1.95;;;;;;;;;;6244796;22;20389;-78
2024/01/31 13:15:42;;;;;;;7.63;2.00;;;;;;;;;;6245435;22;20099;-78
2024/01/31 13:18:09;;;;;;;7.22;1.60;;;;;;;;;;6244910;22;20015;-78
2024/01/31 13:20:36;;;;;;;4.55;1.50;;;;;;;;;;6245813;22;20020;-78
2024/01/31 13:23:03;;;;;;;6.20;2.13;;;;;;;;;;6245621;22;20028;-77
2024/01/31 13:25:29;;;;;;;6.05;1.70;;;;;;;;;;6244920;22;20445;-79
2024/01/31 13:31:54;;;;;;;5.45;1.80;;;;;;;;;;5036208;28;20929;-78
2024/01/31 13:34:20;;;;;;;6.18;2.10;;;;;;;;;;5024500;28;20048;-78
2024/01/31 13:36:47;;;;;;;5.03;2.17;;;;;;;;;;5026180;28;20384;-80
2024/01/31 13:39:15;;;;;;;4.15;1.20;;;;;;;;;;5027134;28;20056;-77
2024/01/31 13:41:42;;;;;;;4.65;1.30;;;;;;;;;;5024630;28;20039;-80
2024/01/31 13:44:08;;;;;;;3.10;0.98;;;;;;;;;;5028648;28;20046;-79
2024/01/31 13:46:38;;;;;;;4.35;1.35;;;;;;;;;;5028514;28;20041;-80
2024/01/31 13:49:06;;;;;;;4.45;1.98;;;;;;;;;;5023603;28;20522;-78
2024/01/31 13:51:35;;;;;;;16.33;6.63;;;;;;;;;;5021143;28;20046;-77
2024/01/31 13:54:01;;;;;;;;;;;;;;;;;;5025194;28;20104;-78
2024/01/31 13:56:28;;;;;;;119.50;60.83;;;;;;;;;;5024253;28;20015;-80
2024/01/31 13:58:54;;;;;;;197.40;96.28;;;;;;;;;;5023804;28;20053;-78
2024/01/31 14:01:21;;;;;;;184.50;90.90;;;;;;;;;;5019671;28;20042;-79
2024/01/31 14:03:48;;;;;;;109.50;52.55;;;;;;;;;;5026731;28;20046;-80
2024/01/31 14:06:14;;;;;;;44.90;21.10;;;;;;;;;;5050282;28;20045;-80
2024/01/31 14:08:41;;;;;;;43.83;20.67;;;;;;;;;;5056197;28;20056;-79
2024/01/31 14:11:08;;;;;;;14.05;5.60;;;;;;;;;;5056563;28;20099;-80
2024/01/31 14:13:34;;;;;;;8.85;2.10;;;;;;;;;;5025541;28;20111;-80
2024/01/31 14:16:01;;;;;;;6.35;1.40;;;;;;;;;;5025488;28;20610;-79
2024/01/31 14:18:28;;;;;;;6.97;1.23;;;;;;;;;;5028739;28;20034;-79
2024/01/31 14:20:55;;;;;;;5.65;1.30;;;;;;;;;;5028167;28;20056;-80
2024/01/31 14:23:21;;;;;;;2.65;0.85;;;;;;;;;;5023168;28;20544;-80
2024/01/31 14:26:08;;;;;;;4.63;1.08;;;;;;;;;;5024260;28;20048;-80
2024/01/31 14:28:38;;;;;;;4.05;0.90;;;;;;;;;;5054896;28;20042;-80
2024/01/31 14:31:10;;;;;;;3.45;0.93;;;;;;;;;;5024036;28;20100;-79
2024/01/31 14:33:36;;;;;;;4.95;1.13;;;;;;;;;;5021503;28;20465;-79
2024/01/31 14:36:04;;;;;;;5.63;1.08;;;;;;;;;;5026054;28;20041;-79
2024/01/31 14:38:32;;;;;;;3.38;1.30;;;;;;;;;;5058047;28;20076;-79
2024/01/31 14:41:01;;;;;;;6.80;2.63;;;;;;;;;;5022907;28;20092;-80
2024/01/31 14:43:28;;;;;;;6.35;2.10;;;;;;;;;;5012765;28;20110;-78